createdAt,value
2023-05-11T00:01:34.077Z,7.21
2023-05-11T00:04:01.386Z,7.22
2023-05-11T00:06:28.847Z,7.24
2023-05-11T00:08:56.110Z,7.26
2023-05-11T00:11:23.884Z,7.32
2023-05-11T00:13:51.274Z,7.36
2023-05-11T00:16:18.317Z,7.39
2023-05-11T00:18:45.710Z,7.40
2023-05-11T00:21:12.911Z,7.42
2023-05-11T00:23:40.124Z,7.45
2023-05-11T00:26:07.278Z,7.45
2023-05-11T00:28:34.270Z,7.47
2023-05-11T00:31:01.639Z,7.49
2023-05-11T00:33:28.826Z,7.52
2023-05-11T00:35:55.969Z,7.53
2023-05-11T00:38:23.019Z,7.54
2023-05-11T00:40:50.478Z,7.55
2023-05-11T00:43:17.628Z,7.55
2023-05-11T00:45:48.179Z,7.57
2023-05-11T00:48:16.273Z,7.57
2023-05-11T00:50:43.506Z,7.57
2023-05-11T00:53:11.734Z,7.56
2023-05-11T00:55:38.933Z,7.55
2023-05-11T00:58:06.306Z,7.53
2023-05-11T01:00:33.579Z,7.52
2023-05-11T01:03:01.109Z,7.52
2023-05-11T01:05:34.584Z,7.55
2023-05-11T01:08:15.663Z,7.55
2023-05-11T01:10:49.718Z,7.57
2023-05-11T01:13:22.906Z,7.60
2023-05-11T01:15:53.998Z,7.62
2023-05-11T01:18:35.224Z,7.65
2023-05-11T01:21:07.188Z,7.65
2023-05-11T01:24:09.010Z,7.65
2023-05-11T01:27:03.903Z,7.66
2023-05-11T01:30:26.112Z,7.63
2023-05-11T01:33:04.322Z,7.63
2023-05-11T01:35:31.608Z,7.64
2023-05-11T01:37:59.805Z,7.66
2023-05-11T01:40:29.278Z,7.66
2023-05-11T01:43:05.139Z,7.67
2023-05-11T01:45:35.009Z,7.68
2023-05-11T01:48:03.874Z,7.69
2023-05-11T01:50:31.098Z,7.69
2023-05-11T01:52:59.062Z,7.68
2023-05-11T01:55:26.427Z,7.65
2023-05-11T01:57:54.199Z,7.62
2023-05-11T02:00:21.657Z,7.61
2023-05-11T02:02:49.211Z,7.57
2023-05-11T02:05:21.403Z,7.54
2023-05-11T02:07:50.729Z,7.51
2023-05-11T02:10:18.790Z,7.48
2023-05-11T02:12:47.045Z,7.45
2023-05-11T02:15:14.500Z,7.43
2023-05-11T02:17:41.618Z,7.42
2023-05-11T02:20:09.434Z,7.40
2023-05-11T02:22:36.533Z,7.40
2023-05-11T02:25:04.763Z,7.39
2023-05-11T02:27:33.247Z,7.39
2023-05-11T02:30:00.540Z,7.38
2023-05-11T02:32:30.088Z,7.40
2023-05-11T02:35:09.444Z,7.40
2023-05-11T02:37:36.599Z,7.41
2023-05-11T02:40:06.831Z,7.41
2023-05-11T02:42:37.183Z,7.43
2023-05-11T02:45:06.093Z,7.44
2023-05-11T02:47:46.587Z,7.44
2023-05-11T02:50:15.691Z,7.46
2023-05-11T02:52:45.308Z,7.47
2023-05-11T02:55:12.595Z,7.50
2023-05-11T02:57:39.886Z,7.53
2023-05-11T03:00:08.847Z,7.56
2023-05-11T03:02:36.233Z,7.60
2023-05-11T03:05:05.260Z,7.65
2023-05-11T03:07:33.270Z,7.70
2023-05-11T03:10:01.564Z,7.74
2023-05-11T03:12:34.120Z,7.78
2023-05-11T03:15:03.340Z,7.82
2023-05-11T03:17:31.292Z,7.88
2023-05-11T03:19:59.058Z,7.93
2023-05-11T03:22:26.209Z,7.99
2023-05-11T03:24:53.277Z,8.02
2023-05-11T03:27:20.426Z,8.06
2023-05-11T03:29:48.465Z,8.12
2023-05-11T03:32:15.884Z,8.19
2023-05-11T03:34:43.092Z,8.26
2023-05-11T03:37:13.237Z,8.31
2023-05-11T03:39:41.776Z,8.36
2023-05-11T03:42:09.173Z,8.43
2023-05-11T03:44:36.523Z,8.52
2023-05-11T03:47:04.455Z,8.62
2023-05-11T03:49:32.322Z,8.71
2023-05-11T03:51:59.521Z,8.78
2023-05-11T03:54:27.078Z,8.87
2023-05-11T03:56:54.157Z,8.94
2023-05-11T03:59:21.353Z,9.02
2023-05-11T04:01:51.755Z,9.10
2023-05-11T04:04:19.893Z,9.17
2023-05-11T04:06:47.500Z,9.23
2023-05-11T04:09:18.283Z,9.31
2023-05-11T04:11:45.605Z,9.39
2023-05-11T04:14:12.828Z,9.48
2023-05-11T04:16:40.020Z,9.57
2023-05-11T04:19:07.719Z,9.66
2023-05-11T04:21:36.236Z,9.73
2023-05-11T04:24:04.421Z,9.81
2023-05-11T04:26:31.621Z,9.89
2023-05-11T04:28:58.932Z,9.98
2023-05-11T04:31:26.003Z,10.05
2023-05-11T04:33:53.538Z,10.10
2023-05-11T04:36:22.515Z,10.13
2023-05-11T04:38:49.756Z,10.15
2023-05-11T04:41:17.119Z,10.16
2023-05-11T04:43:45.281Z,10.19
2023-05-11T04:46:12.613Z,10.22
2023-05-11T04:48:39.849Z,10.24
2023-05-11T04:51:07.158Z,10.25
2023-05-11T04:53:39.313Z,10.28
2023-05-11T04:56:06.774Z,10.33
2023-05-11T04:58:34.007Z,10.40
2023-05-11T05:01:01.714Z,10.51
2023-05-11T05:03:29.100Z,10.62
2023-05-11T05:05:56.293Z,10.73
2023-05-11T05:08:23.716Z,10.86
2023-05-11T05:10:50.903Z,10.96
2023-05-11T05:13:18.056Z,11.04
2023-05-11T05:15:45.223Z,11.13
2023-05-11T05:18:12.419Z,11.21
2023-05-11T05:20:39.932Z,11.28
2023-05-11T05:23:06.980Z,11.36
2023-05-11T05:25:34.420Z,11.45
2023-05-11T05:28:01.488Z,11.57
2023-05-11T05:30:28.755Z,11.70
2023-05-11T05:32:55.908Z,11.80
2023-05-11T05:35:23.020Z,11.88
2023-05-11T05:37:50.269Z,11.99
2023-05-11T05:40:18.343Z,12.09
2023-05-11T05:42:48.559Z,12.16
2023-05-11T05:45:20.319Z,12.12
2023-05-11T05:47:49.341Z,12.04
2023-05-11T05:50:17.443Z,11.98
2023-05-11T05:52:45.541Z,11.96
2023-05-11T05:55:13.358Z,11.97
2023-05-11T05:57:40.776Z,12.00
2023-05-11T06:00:10.885Z,12.02
2023-05-11T06:02:41.688Z,12.11
2023-05-11T06:05:12.171Z,12.22
2023-05-11T06:07:39.716Z,12.23
2023-05-11T06:10:07.173Z,12.28
2023-05-11T06:12:34.462Z,12.37
2023-05-11T06:15:01.889Z,12.45
2023-05-11T06:17:30.103Z,12.55
2023-05-11T06:19:57.520Z,12.68
2023-05-11T06:22:26.412Z,12.86
2023-05-11T06:24:53.709Z,13.00
2023-05-11T06:27:22.041Z,13.07
2023-05-11T06:29:49.311Z,13.22
2023-05-11T06:32:16.983Z,13.43
2023-05-11T06:34:44.053Z,13.66
2023-05-11T06:37:11.252Z,13.89
2023-05-11T06:39:38.406Z,14.17
2023-05-11T06:42:08.373Z,14.49
2023-05-11T06:44:35.781Z,14.83
2023-05-11T06:47:06.071Z,15.12
2023-05-11T06:49:33.359Z,15.48
2023-05-11T06:52:00.516Z,15.81
2023-05-11T06:54:27.960Z,16.01
2023-05-11T06:56:55.110Z,16.06
2023-05-11T06:59:22.156Z,16.09
2023-05-11T07:01:49.205Z,16.20
2023-05-11T07:04:16.404Z,16.37
2023-05-11T07:06:43.509Z,16.54
2023-05-11T07:09:10.557Z,16.74
2023-05-11T07:11:38.127Z,17.02
2023-05-11T07:14:06.097Z,17.29
2023-05-11T07:16:33.317Z,17.58
2023-05-11T07:19:00.577Z,17.89
2023-05-11T07:21:27.775Z,18.20
2023-05-11T07:23:54.882Z,18.48
2023-05-11T07:26:22.372Z,18.76
2023-05-11T07:28:49.530Z,18.94
2023-05-11T07:31:16.560Z,19.05
2023-05-11T07:33:43.689Z,19.12
2023-05-11T07:36:10.834Z,19.15
2023-05-11T07:38:38.041Z,19.11
2023-05-11T07:41:06.863Z,19.02
2023-05-11T07:43:34.640Z,18.89
2023-05-11T07:46:01.696Z,18.65
2023-05-11T07:48:29.221Z,18.52
2023-05-11T07:50:56.301Z,18.56
2023-05-11T07:53:23.335Z,18.94
2023-05-11T07:55:50.599Z,19.56
2023-05-11T07:58:17.849Z,20.35
2023-05-11T08:00:44.894Z,20.95
2023-05-11T08:03:12.123Z,21.12
2023-05-11T08:05:39.524Z,20.93
2023-05-11T08:08:06.653Z,20.71
2023-05-11T08:10:33.800Z,20.60
2023-05-11T08:13:00.849Z,20.48
2023-05-11T08:15:28.304Z,20.26
2023-05-11T08:17:55.809Z,20.22
2023-05-11T08:20:23.880Z,20.25
2023-05-11T08:22:51.103Z,20.23
2023-05-11T08:25:18.631Z,20.28
2023-05-11T08:27:46.145Z,20.51
2023-05-11T08:30:13.795Z,20.88
2023-05-11T08:35:11.110Z,21.51
2023-05-11T08:37:38.292Z,21.67
2023-05-11T08:40:06.113Z,21.83
2023-05-11T08:42:34.241Z,21.92
2023-05-11T08:45:01.821Z,21.99
2023-05-11T08:47:29.279Z,21.88
2023-05-11T08:49:56.800Z,22.02
2023-05-11T08:52:23.977Z,22.36
2023-05-11T08:54:51.227Z,22.60
2023-05-11T08:57:18.382Z,22.94
2023-05-11T08:59:49.197Z,23.16
2023-05-11T09:02:17.642Z,23.01
2023-05-11T09:04:48.057Z,22.34
2023-05-11T09:07:17.870Z,21.66
2023-05-11T09:09:46.235Z,21.50
2023-05-11T09:12:13.891Z,21.73
2023-05-11T09:14:41.126Z,21.99
2023-05-11T09:17:08.388Z,22.03
2023-05-11T09:19:35.510Z,22.00
2023-05-11T09:22:02.534Z,21.80
2023-05-11T09:24:29.767Z,21.65
2023-05-11T09:27:09.617Z,21.57
2023-05-11T09:29:36.698Z,21.60
2023-05-11T09:32:05.008Z,21.67
2023-05-11T09:34:32.138Z,21.57
2023-05-11T09:36:59.310Z,21.50
2023-05-11T09:39:44.719Z,21.31
2023-05-11T09:42:24.404Z,20.77
2023-05-11T09:44:53.391Z,20.50
2023-05-11T09:47:22.667Z,20.47
2023-05-11T09:49:50.280Z,20.33
2023-05-11T09:52:58.394Z,20.38
2023-05-11T09:55:26.085Z,20.66
2023-05-11T09:57:55.449Z,20.80
2023-05-11T10:00:22.572Z,21.15
2023-05-11T10:03:00.667Z,21.58
2023-05-11T10:05:28.177Z,22.04
2023-05-11T10:08:02.885Z,22.25
2023-05-11T10:10:31.674Z,22.34
2023-05-11T10:13:00.061Z,22.34
2023-05-11T10:15:30.787Z,22.27
2023-05-11T10:17:59.926Z,21.99
2023-05-11T10:20:27.440Z,21.60
2023-05-11T10:22:56.512Z,21.20
2023-05-11T10:25:24.088Z,21.10
2023-05-11T10:27:51.847Z,21.09
2023-05-11T10:30:19.576Z,21.06
2023-05-11T10:32:50.271Z,21.02
2023-05-11T10:35:17.389Z,21.06
2023-05-11T10:37:45.032Z,21.16
2023-05-11T10:40:12.341Z,21.37
2023-05-11T10:42:45.513Z,21.34
2023-05-11T10:45:24.242Z,21.15
2023-05-11T10:48:00.269Z,21.04
2023-05-11T10:50:48.520Z,20.90
2023-05-11T10:53:34.536Z,20.82
2023-05-11T10:56:18.042Z,20.91
2023-05-11T10:59:03.993Z,21.03
2023-05-11T11:01:41.003Z,21.22
2023-05-11T11:04:09.906Z,21.32
2023-05-11T11:06:43.803Z,21.28
2023-05-11T11:09:16.231Z,21.15
2023-05-11T11:11:46.541Z,20.94
2023-05-11T11:14:14.885Z,20.79
2023-05-11T11:17:17.366Z,20.68
2023-05-11T11:19:44.526Z,20.39
2023-05-11T11:22:38.260Z,20.16
2023-05-11T11:25:12.114Z,20.03
2023-05-11T11:27:45.299Z,20.00
2023-05-11T11:30:19.703Z,20.01
2023-05-11T11:32:48.430Z,20.10
2023-05-11T11:35:41.866Z,20.10
2023-05-11T11:38:10.843Z,20.09
2023-05-11T11:40:47.214Z,20.08
2023-05-11T11:43:22.383Z,20.18
2023-05-11T11:45:56.809Z,20.27
2023-05-11T11:48:35.515Z,20.31
2023-05-11T11:51:06.379Z,20.35
2023-05-11T11:53:36.698Z,20.36
2023-05-11T11:56:24.113Z,20.38
2023-05-11T11:58:51.780Z,20.43
2023-05-11T12:01:23.814Z,20.51
2023-05-11T12:04:14.228Z,20.52
2023-05-11T12:06:43.167Z,20.34
2023-05-11T12:09:10.672Z,20.24
2023-05-11T12:11:37.959Z,20.18
2023-05-11T12:14:05.065Z,20.10
2023-05-11T12:16:32.482Z,19.91
2023-05-11T12:19:01.900Z,19.77
2023-05-11T12:21:31.799Z,19.69
2023-05-11T12:24:03.160Z,19.51
2023-05-11T12:26:31.130Z,19.22
2023-05-11T12:29:08.578Z,18.96
2023-05-11T12:31:36.943Z,18.76
2023-05-11T12:34:04.174Z,18.60
2023-05-11T12:36:32.143Z,18.51
2023-05-11T12:38:59.317Z,18.35
2023-05-11T12:41:27.465Z,18.40
2023-05-11T12:43:54.838Z,18.60
2023-05-11T12:46:22.525Z,18.80
2023-05-11T12:48:50.753Z,18.97
2023-05-11T12:52:01.354Z,19.15
2023-05-11T12:54:28.402Z,19.26
2023-05-11T12:56:55.665Z,19.28
2023-05-11T12:59:33.497Z,19.35
2023-05-11T13:02:08.370Z,19.40
2023-05-11T13:04:35.622Z,19.32
2023-05-11T13:07:03.590Z,19.26
2023-05-11T13:09:30.751Z,19.23
2023-05-11T13:12:13.684Z,19.13
2023-05-11T13:14:40.903Z,19.09
2023-05-11T13:17:08.668Z,19.06
2023-05-11T13:19:37.866Z,19.03
2023-05-11T13:22:05.755Z,18.95
2023-05-11T13:24:34.437Z,18.87
2023-05-11T13:27:02.085Z,18.84
2023-05-11T13:29:29.135Z,18.74
2023-05-11T13:31:56.320Z,18.61
2023-05-11T13:34:23.636Z,18.58
2023-05-11T13:36:50.997Z,18.55
2023-05-11T13:39:18.252Z,18.49
2023-05-11T13:41:46.431Z,18.51
2023-05-11T13:44:13.524Z,18.53
2023-05-11T13:46:40.790Z,18.51
2023-05-11T13:49:08.821Z,18.49
2023-05-11T13:51:36.070Z,18.51
2023-05-11T13:54:03.685Z,18.53
2023-05-11T13:56:31.769Z,18.57
2023-05-11T13:59:00.094Z,18.57
2023-05-11T14:01:27.872Z,18.66
2023-05-11T14:03:56.231Z,18.77
2023-05-11T14:06:24.373Z,18.77
2023-05-11T14:08:51.940Z,18.74
2023-05-11T14:11:19.075Z,18.65
2023-05-11T14:13:46.227Z,18.51
2023-05-11T14:16:13.673Z,18.34
2023-05-11T14:18:41.211Z,18.16
2023-05-11T14:21:08.495Z,18.06
2023-05-11T14:23:37.603Z,18.08
2023-05-11T14:26:06.817Z,18.06
2023-05-11T14:28:34.164Z,18.00
2023-05-11T14:31:01.517Z,17.91
2023-05-11T14:33:28.650Z,17.84
2023-05-11T14:35:56.020Z,17.80
2023-05-11T14:38:23.330Z,17.73
2023-05-11T14:40:52.411Z,17.72
2023-05-11T14:43:19.740Z,17.75
2023-05-11T14:45:46.856Z,17.74
2023-05-11T14:48:14.163Z,17.69
2023-05-11T14:50:43.315Z,17.68
2023-05-11T14:53:10.548Z,17.64
2023-05-11T14:55:38.023Z,17.57
2023-05-11T14:58:07.938Z,17.51
2023-05-11T15:00:41.838Z,17.42
2023-05-11T15:03:10.842Z,17.33
2023-05-11T15:05:38.562Z,17.26
2023-05-11T15:08:12.756Z,17.18
2023-05-11T15:10:46.004Z,17.09
2023-05-11T15:13:14.796Z,16.98
2023-05-11T15:15:42.181Z,16.86
2023-05-11T15:18:09.386Z,16.75
2023-05-11T15:20:38.826Z,16.62
2023-05-11T15:23:09.747Z,16.49
2023-05-11T15:25:37.113Z,16.37
2023-05-11T15:28:04.272Z,16.26
2023-05-11T15:30:32.706Z,16.19
2023-05-11T15:33:00.338Z,16.16
2023-05-11T15:35:27.651Z,16.12
2023-05-11T15:37:54.753Z,16.11
2023-05-11T15:40:21.908Z,16.05
2023-05-11T15:42:49.094Z,16.00
2023-05-11T15:45:16.524Z,15.93
2023-05-11T15:47:43.924Z,15.86
2023-05-11T15:50:11.049Z,15.79
2023-05-11T15:52:38.105Z,15.73
2023-05-11T15:55:05.863Z,15.65
2023-05-11T15:57:33.625Z,15.58
2023-05-11T16:00:00.720Z,15.53
2023-05-11T16:02:27.876Z,15.48
2023-05-11T16:04:55.440Z,15.43
2023-05-11T16:07:22.643Z,15.37
2023-05-11T16:09:49.785Z,15.30
2023-05-11T16:12:16.846Z,15.23
2023-05-11T16:14:44.081Z,15.17
2023-05-11T16:17:11.301Z,15.12
2023-05-11T16:19:38.542Z,15.05
2023-05-11T16:22:05.632Z,14.97
2023-05-11T16:24:34.483Z,14.88
2023-05-11T16:27:02.106Z,14.80
2023-05-11T16:29:29.244Z,14.69
2023-05-11T16:31:56.785Z,14.60
2023-05-11T16:34:24.285Z,14.49
2023-05-11T16:36:51.413Z,14.40
2023-05-11T16:39:18.557Z,14.29
2023-05-11T16:41:45.698Z,14.18
2023-05-11T16:44:13.587Z,14.09
2023-05-11T16:46:40.843Z,13.97
2023-05-11T16:49:07.998Z,13.86
2023-05-11T16:51:35.139Z,13.75
2023-05-11T16:54:02.374Z,13.66
2023-05-11T16:56:29.643Z,13.55
2023-05-11T16:58:56.734Z,13.43
2023-05-11T17:01:23.838Z,13.33
2023-05-11T17:03:51.438Z,13.24
2023-05-11T17:06:20.941Z,13.12
2023-05-11T17:08:48.242Z,13.01
2023-05-11T17:11:15.402Z,12.90
2023-05-11T17:13:42.451Z,12.78
2023-05-11T17:16:09.584Z,12.69
2023-05-11T17:18:36.919Z,12.59
2023-05-11T17:21:04.424Z,12.50
2023-05-11T17:23:31.767Z,12.41
2023-05-11T17:25:59.626Z,12.34
2023-05-11T17:28:27.322Z,12.29
2023-05-11T17:30:54.390Z,12.23
2023-05-11T17:33:21.644Z,12.16
2023-05-11T17:35:50.720Z,12.10
2023-05-11T17:38:18.048Z,12.02
2023-05-11T17:40:45.390Z,11.93
2023-05-11T17:43:12.983Z,11.85
2023-05-11T17:45:40.109Z,11.74
2023-05-11T17:48:07.273Z,11.63
2023-05-11T17:50:36.703Z,11.52
2023-05-11T17:53:03.784Z,11.39
2023-05-11T17:55:31.580Z,11.29
2023-05-11T17:57:59.032Z,11.18
2023-05-11T18:00:27.961Z,11.10
2023-05-11T18:02:55.454Z,11.03
2023-05-11T18:05:28.161Z,10.92
2023-05-11T18:08:02.948Z,10.84
2023-05-11T18:10:30.340Z,10.78
2023-05-11T18:12:57.299Z,10.74
2023-05-11T18:15:24.435Z,10.72
2023-05-11T18:17:51.793Z,10.71
2023-05-11T18:20:19.137Z,10.67
2023-05-11T18:22:47.120Z,10.61
2023-05-11T18:25:15.383Z,10.55
2023-05-11T18:27:42.440Z,10.51
2023-05-11T18:30:10.587Z,10.47
2023-05-11T18:32:37.692Z,10.44
2023-05-11T18:35:06.070Z,10.40
2023-05-11T18:37:35.624Z,10.37
2023-05-11T18:40:06.563Z,10.33
2023-05-11T18:42:36.840Z,10.29
2023-05-11T18:45:04.598Z,10.26
2023-05-11T18:47:36.544Z,10.25
2023-05-11T18:50:04.609Z,10.21
2023-05-11T18:52:31.654Z,10.16
2023-05-11T18:55:00.303Z,10.13
2023-05-11T18:57:29.819Z,10.10
2023-05-11T18:59:57.405Z,10.08
2023-05-11T19:02:24.672Z,10.06
2023-05-11T19:04:51.726Z,10.04
2023-05-11T19:07:20.287Z,10.04
2023-05-11T19:09:47.925Z,10.03
2023-05-11T19:12:15.403Z,10.02
2023-05-11T19:14:42.555Z,9.97
2023-05-11T19:17:09.755Z,9.92
2023-05-11T19:19:36.956Z,9.89
2023-05-11T19:22:05.145Z,9.85
2023-05-11T19:24:33.510Z,9.82
2023-05-11T19:27:07.406Z,9.78
2023-05-11T19:29:35.658Z,9.73
2023-05-11T19:32:03.293Z,9.70
2023-05-11T19:34:30.504Z,9.68
2023-05-11T19:36:57.659Z,9.64
2023-05-11T19:39:24.860Z,9.60
2023-05-11T19:41:52.175Z,9.54
2023-05-11T19:44:19.306Z,9.48
2023-05-11T19:46:47.441Z,9.42
2023-05-11T19:49:15.467Z,9.39
2023-05-11T19:51:43.194Z,9.36
2023-05-11T19:54:11.186Z,9.34
2023-05-11T19:56:38.641Z,9.32
2023-05-11T19:59:05.902Z,9.28
2023-05-11T20:01:33.176Z,9.25
2023-05-11T20:04:01.171Z,9.24
2023-05-11T20:06:28.582Z,9.24
2023-05-11T20:08:56.676Z,9.22
2023-05-11T20:11:25.456Z,9.21
2023-05-11T20:13:53.868Z,9.18
2023-05-11T20:16:21.179Z,9.17
2023-05-11T20:18:48.369Z,9.17
2023-05-11T20:21:16.128Z,9.16
2023-05-11T20:23:44.344Z,9.15
2023-05-11T20:34:14.349Z,9.17
2023-05-11T20:36:41.440Z,9.14
2023-05-11T20:39:09.463Z,9.11
2023-05-11T20:41:36.616Z,9.07
2023-05-11T20:44:04.179Z,9.04
2023-05-11T20:46:31.227Z,8.99
2023-05-11T20:48:58.363Z,8.96
2023-05-11T20:51:25.841Z,8.93
2023-05-11T20:53:53.939Z,8.90
2023-05-11T20:56:21.650Z,8.88
2023-05-11T20:58:48.619Z,8.84
2023-05-11T21:02:17.198Z,8.82
2023-05-11T21:04:44.916Z,8.77
2023-05-11T21:07:12.464Z,8.75
2023-05-11T21:09:39.612Z,8.74
2023-05-11T21:12:07.873Z,8.72
2023-05-11T21:14:34.989Z,8.71
2023-05-11T21:17:02.281Z,8.68
2023-05-11T21:19:29.575Z,8.67
2023-05-11T21:21:56.597Z,8.66
2023-05-11T21:24:23.947Z,8.65
2023-05-11T21:26:51.300Z,8.65
2023-05-11T21:29:18.448Z,8.63
2023-05-11T21:31:45.606Z,8.63
2023-05-11T21:34:12.974Z,8.61
2023-05-11T21:36:41.563Z,8.59
2023-05-11T21:39:08.687Z,8.55
2023-05-11T21:41:35.789Z,8.50
2023-05-11T21:44:02.753Z,8.46
2023-05-11T21:46:30.607Z,8.43
2023-05-11T21:48:57.802Z,8.40
2023-05-11T21:51:24.877Z,8.37
2023-05-11T21:53:52.136Z,8.37
2023-05-11T21:56:19.263Z,8.35
2023-05-11T21:58:46.329Z,8.34
2023-05-11T22:01:14.167Z,8.33
2023-05-11T22:03:41.398Z,8.31
2023-05-11T22:06:08.618Z,8.28
2023-05-11T22:08:36.081Z,8.25
2023-05-11T22:11:04.332Z,8.19
2023-05-11T22:13:31.472Z,8.12
2023-05-11T22:15:58.559Z,8.06
2023-05-11T22:18:25.851Z,8.00
2023-05-11T22:20:53.010Z,7.94
2023-05-11T22:23:20.168Z,7.89
2023-05-11T22:25:47.306Z,7.86
2023-05-11T22:28:14.421Z,7.84
2023-05-11T22:30:41.501Z,7.84
2023-05-11T22:33:08.654Z,7.82
2023-05-11T22:35:35.732Z,7.78
2023-05-11T22:38:02.975Z,7.74
2023-05-11T22:40:30.145Z,7.69
2023-05-11T22:42:57.263Z,7.64
2023-05-11T22:45:24.407Z,7.56
2023-05-11T22:47:51.471Z,7.41
2023-05-11T22:50:18.785Z,7.26
2023-05-11T22:52:47.515Z,7.09
2023-05-11T22:55:14.652Z,6.89
2023-05-11T22:57:41.787Z,6.71
2023-05-11T23:00:12.233Z,6.54
2023-05-11T23:02:39.503Z,6.36
2023-05-11T23:05:07.390Z,6.22
2023-05-11T23:07:34.725Z,6.11
2023-05-11T23:10:01.804Z,6.01
2023-05-11T23:12:28.929Z,5.92
2023-05-11T23:14:56.957Z,5.83
2023-05-11T23:17:24.209Z,5.78
2023-05-11T23:19:51.360Z,5.69
2023-05-11T23:22:18.448Z,5.61
2023-05-11T23:24:45.658Z,5.51
2023-05-11T23:27:12.711Z,5.38
2023-05-11T23:29:40.692Z,5.26
2023-05-11T23:32:07.728Z,5.14
2023-05-11T23:34:34.958Z,5.05
2023-05-11T23:37:02.092Z,4.98
2023-05-11T23:39:29.357Z,4.91
2023-05-11T23:41:56.354Z,4.86
2023-05-11T23:44:23.488Z,4.81
2023-05-11T23:46:50.680Z,4.75
2023-05-11T23:49:17.978Z,4.70
2023-05-11T23:51:45.137Z,4.63
2023-05-11T23:54:12.129Z,4.55
2023-05-11T23:56:39.166Z,4.47
2023-05-11T23:59:06.284Z,4.40
